DGAA/ACC METAR and TAF weather

Enter ICAO airport designator
Station Type Date Time Source
DGAA METAR 2021/05/13 01:00 UTC NOAA

DGAA 130100Z 23009KT 9999 FEW024 27/24 Q1011 NOSIG


Station Type Date Time Source
DGAA Decoded METAR 2021/05/13 01:00 UTC NOAA

Accra, Ghana (DGAA) 05-36N 000-10W 69M
May 12, 2021 - 09:00 PM EDT / 2021.05.13 0100 UTC
Wind: from the SW (230 degrees) at 10 MPH (9 KT):0
Visibility: greater than 7 mile(s):0
Sky conditions: mostly clear
Temperature: 80 F (27 C)
Dew Point: 75 F (24 C)
Relative Humidity: 83%
Pressure (altimeter): 29.85 in. Hg (1011 hPa)
ob: DGAA 130100Z 23009KT 9999 FEW024 27/24 Q1011 NOSIG
cycle: 1

Station Type Date Time Source
DGAA TAF 2021/05/12 18:21 UTC NOAA

TAF TAF DGAA 121700Z 1218/1324 20012KT 9999 FEW014
BECMG 1300/1302 26008KT
TEMPO 1305/1309 8000
BECMG 1310/1312 19015KT BKN022 PROB40
TEMPO 1314/1318 TS FEW030CB

Example: see airport list